createdAt,value
2017-01-21T00:00:24.052Z,1.6
2017-01-21T00:01:33.970Z,1.54
2017-01-21T00:02:44.327Z,1.54
2017-01-21T00:03:54.658Z,1.54
2017-01-21T00:05:04.516Z,1.53
2017-01-21T00:06:14.387Z,1.55
2017-01-21T00:07:24.679Z,1.53
2017-01-21T00:08:35.044Z,1.54
2017-01-21T00:09:44.937Z,1.48
2017-01-21T00:10:54.794Z,1.5
2017-01-21T00:12:04.658Z,1.47
2017-01-21T00:13:14.535Z,1.53
2017-01-21T00:14:24.413Z,1.47
2017-01-21T00:15:34.321Z,1.5
2017-01-21T00:16:44.614Z,1.5
2017-01-21T00:17:54.481Z,1.47
2017-01-21T00:19:03.957Z,1.47
2017-01-21T00:20:13.422Z,1.5
2017-01-21T00:21:23.285Z,1.48
2017-01-21T00:22:33.572Z,1.43
2017-01-21T00:23:43.453Z,1.48
2017-01-21T00:24:53.751Z,1.43
2017-01-21T00:26:04.043Z,1.43
2017-01-21T00:27:13.901Z,1.38
2017-01-21T00:28:23.761Z,1.47
2017-01-21T00:29:34.104Z,1.43
2017-01-21T00:30:43.978Z,1.33
2017-01-21T00:31:54.260Z,1.46
2017-01-21T00:33:04.586Z,1.38
2017-01-21T00:34:14.079Z,1.33
2017-01-21T00:35:24.349Z,1.33
2017-01-21T00:36:34.609Z,1.33
2017-01-21T00:37:44.903Z,1.39
2017-01-21T00:38:55.219Z,1.38
2017-01-21T00:40:05.517Z,1.43
2017-01-21T00:41:15.455Z,1.46
2017-01-21T00:42:25.730Z,1.47
2017-01-21T00:43:35.580Z,1.42
2017-01-21T00:44:45.924Z,1.46
2017-01-21T00:45:56.193Z,1.4
2017-01-21T00:47:05.656Z,1.39
2017-01-21T00:48:15.912Z,1.35
2017-01-21T00:49:26.228Z,1.43
2017-01-21T00:50:36.610Z,1.4
2017-01-21T00:51:46.068Z,1.39
2017-01-21T00:52:56.340Z,1.5
2017-01-21T00:54:06.212Z,1.54
2017-01-21T00:55:16.081Z,1.46
2017-01-21T00:56:26.403Z,1.36
2017-01-21T00:57:36.259Z,1.47
2017-01-21T00:58:46.553Z,1.42
2017-01-21T00:59:56.925Z,1.42
2017-01-21T01:01:07.186Z,1.42
2017-01-21T01:02:17.462Z,1.43
2017-01-21T01:03:27.758Z,1.43
2017-01-21T01:04:37.619Z,1.46
2017-01-21T01:05:47.944Z,1.4
2017-01-21T01:06:58.227Z,1.43
2017-01-21T01:08:08.112Z,1.5
2017-01-21T01:09:18.157Z,1.5
2017-01-21T01:10:28.115Z,1.43
2017-01-21T01:11:38.428Z,1.4
2017-01-21T01:12:48.322Z,1.47
2017-01-21T01:13:58.210Z,1.43
2017-01-21T01:15:08.539Z,1.36
2017-01-21T01:16:18.838Z,1.4
2017-01-21T01:17:29.176Z,1.4
2017-01-21T01:18:39.467Z,1.46
2017-01-21T01:19:49.738Z,1.42
2017-01-21T01:21:00.012Z,1.39
2017-01-21T01:22:09.911Z,1.33
2017-01-21T01:23:19.800Z,1.3
2017-01-21T01:24:30.075Z,1.33
2017-01-21T01:25:39.938Z,1.33
2017-01-21T01:26:50.279Z,1.39
2017-01-21T01:28:00.533Z,1.38
2017-01-21T01:29:10.396Z,1.33
2017-01-21T01:30:20.675Z,1.46
2017-01-21T01:31:30.987Z,1.47
2017-01-21T01:32:41.300Z,1.5
2017-01-21T01:33:51.554Z,1.42
2017-01-21T01:35:01.831Z,1.4
2017-01-21T01:36:12.176Z,1.47
2017-01-21T01:37:22.082Z,1.43
2017-01-21T01:38:31.590Z,1.4
2017-01-21T01:39:41.863Z,1.36
2017-01-21T01:40:51.751Z,1.38
2017-01-21T01:42:01.714Z,1.3
2017-01-21T01:43:11.731Z,1.29
2017-01-21T01:44:21.990Z,1.29
2017-01-21T01:45:31.455Z,1.32
2017-01-21T01:46:41.719Z,1.32
2017-01-21T01:47:51.646Z,1.33
2017-01-21T01:49:02.022Z,1.33
2017-01-21T01:50:11.870Z,1.35
2017-01-21T01:51:21.718Z,1.33
2017-01-21T01:52:31.582Z,1.28
2017-01-21T01:53:41.481Z,1.29
2017-01-21T01:54:51.424Z,1.33
2017-01-21T01:56:00.947Z,1.43
2017-01-21T01:57:10.947Z,1.4
2017-01-21T01:58:20.820Z,1.48
2017-01-21T01:59:31.111Z,1.51
2017-01-21T02:00:41.415Z,1.53
2017-01-21T02:01:51.307Z,1.48
2017-01-21T02:03:01.558Z,1.5
2017-01-21T02:04:11.450Z,1.43
2017-01-21T02:05:21.045Z,1.53
2017-01-21T02:06:31.308Z,1.57
2017-01-21T02:07:41.214Z,1.4
2017-01-21T02:08:51.517Z,1.46
2017-01-21T02:10:01.961Z,1.5
2017-01-21T02:11:12.322Z,1.51
2017-01-21T02:12:22.201Z,1.6
2017-01-21T02:13:32.485Z,1.57
2017-01-21T02:14:42.830Z,1.54
2017-01-21T02:15:52.735Z,1.51
2017-01-21T02:17:02.211Z,1.46
2017-01-21T02:18:11.707Z,1.48
2017-01-21T02:19:22.029Z,1.39
2017-01-21T02:20:32.355Z,1.47
2017-01-21T02:21:41.821Z,1.39
2017-01-21T02:22:52.112Z,1.42
2017-01-21T02:24:02.359Z,1.47
2017-01-21T02:25:12.222Z,1.51
2017-01-21T02:26:21.685Z,1.5
2017-01-21T02:27:31.586Z,1.54
2017-01-21T02:28:41.452Z,1.57
2017-01-21T02:29:51.725Z,1.51
2017-01-21T02:31:01.998Z,1.54
2017-01-21T02:32:12.269Z,1.55
2017-01-21T02:33:22.555Z,1.51
2017-01-21T02:34:32.836Z,1.53
2017-01-21T02:35:43.140Z,1.48
2017-01-21T02:36:53.489Z,1.53
2017-01-21T02:38:03.364Z,1.54
2017-01-21T02:39:13.618Z,1.5
2017-01-21T02:40:23.525Z,1.57
2017-01-21T02:41:33.398Z,1.43
2017-01-21T02:42:43.716Z,1.46
2017-01-21T02:43:53.214Z,1.48
2017-01-21T02:45:03.128Z,1.42
2017-01-21T02:46:12.988Z,1.38
2017-01-21T02:47:23.264Z,1.43
2017-01-21T02:48:33.193Z,1.48
2017-01-21T02:49:43.480Z,1.43
2017-01-21T02:50:53.336Z,1.33
2017-01-21T02:52:03.240Z,1.35
2017-01-21T02:53:13.541Z,1.35
2017-01-21T02:54:23.390Z,1.35
2017-01-21T02:55:33.680Z,1.33
2017-01-21T02:56:43.971Z,1.35
2017-01-21T02:57:54.294Z,1.39
2017-01-21T02:59:04.162Z,1.5
2017-01-21T03:00:14.466Z,1.4
2017-01-21T03:01:24.724Z,1.39
2017-01-21T03:02:35.153Z,1.4
2017-01-21T03:03:45.432Z,1.5
2017-01-21T03:04:55.749Z,1.43
2017-01-21T03:06:05.670Z,1.39
2017-01-21T03:07:15.593Z,1.4
2017-01-21T03:08:25.843Z,1.47
2017-01-21T03:09:35.713Z,1.39
2017-01-21T03:10:46.048Z,1.33
2017-01-21T03:11:55.945Z,1.29
2017-01-21T03:13:06.226Z,1.35
2017-01-21T03:14:16.099Z,1.32
2017-01-21T03:15:25.955Z,1.4
2017-01-21T03:16:36.234Z,1.39
2017-01-21T03:17:46.576Z,1.36
2017-01-21T03:18:56.931Z,1.42
2017-01-21T03:20:06.821Z,1.33
2017-01-21T03:21:17.201Z,1.38
2017-01-21T03:22:27.504Z,1.32
2017-01-21T03:23:37.383Z,1.36
2017-01-21T03:24:47.258Z,1.35
2017-01-21T03:25:57.533Z,1.33
2017-01-21T03:27:07.376Z,1.33
2017-01-21T03:28:16.437Z,1.33
2017-01-21T03:29:26.753Z,1.4
2017-01-21T03:30:37.127Z,1.47
2017-01-21T03:31:47.381Z,1.48
2017-01-21T03:32:57.737Z,1.51
2017-01-21T03:34:08.224Z,1.55
2017-01-21T03:35:18.486Z,1.55
2017-01-21T03:36:28.338Z,1.54
2017-01-21T03:37:38.671Z,1.48
2017-01-21T03:38:48.938Z,1.5
2017-01-21T03:39:59.227Z,1.39
2017-01-21T03:41:09.502Z,1.48
2017-01-21T03:42:19.809Z,1.47
2017-01-21T03:43:30.132Z,1.36
2017-01-21T03:44:39.209Z,1.4
2017-01-21T03:45:49.498Z,1.33
2017-01-21T03:46:59.780Z,1.33
2017-01-21T03:48:10.059Z,1.39
2017-01-21T03:49:20.345Z,1.43
2017-01-21T03:50:30.219Z,1.48
2017-01-21T03:51:40.628Z,1.48
2017-01-21T03:52:50.897Z,1.54
2017-01-21T03:54:01.147Z,1.43
2017-01-21T03:55:11.393Z,1.53
2017-01-21T03:56:21.256Z,1.38
2017-01-21T03:57:30.753Z,1.43
2017-01-21T03:58:41.030Z,1.36
2017-01-21T03:59:51.422Z,1.36
2017-01-21T04:01:01.307Z,1.3
2017-01-21T04:02:11.602Z,1.42
2017-01-21T04:03:22.005Z,1.29
2017-01-21T04:04:31.857Z,1.32
2017-01-21T04:05:42.114Z,1.33
2017-01-21T04:06:52.390Z,1.33
2017-01-21T04:08:02.267Z,1.43
2017-01-21T04:09:11.741Z,1.46
2017-01-21T04:10:22.034Z,1.46
2017-01-21T04:11:32.332Z,1.4
2017-01-21T04:12:41.821Z,1.38
2017-01-21T04:13:51.688Z,1.5
2017-01-21T04:15:01.949Z,1.43
2017-01-21T04:16:12.216Z,1.5
2017-01-21T04:17:22.494Z,1.4
2017-01-21T04:18:32.338Z,1.43
2017-01-21T04:19:42.190Z,1.43
2017-01-21T04:20:51.682Z,1.43
2017-01-21T04:22:01.939Z,1.32
2017-01-21T04:23:12.300Z,1.39
2017-01-21T04:24:22.165Z,1.35
2017-01-21T04:25:32.018Z,1.47
2017-01-21T04:26:42.287Z,1.43
2017-01-21T04:27:52.131Z,1.46
2017-01-21T04:29:02.439Z,1.32
2017-01-21T04:30:12.699Z,1.43
2017-01-21T04:31:22.183Z,1.46
2017-01-21T04:32:32.111Z,1.46
2017-01-21T04:33:42.018Z,1.39
2017-01-21T04:34:51.875Z,1.46
2017-01-21T04:36:02.146Z,1.51
2017-01-21T04:37:12.007Z,1.46
2017-01-21T04:38:21.872Z,1.4
2017-01-21T04:39:31.730Z,1.5
2017-01-21T04:40:41.606Z,1.42
2017-01-21T04:41:51.877Z,1.39
2017-01-21T04:43:02.182Z,1.4
2017-01-21T04:44:12.441Z,1.43
2017-01-21T04:45:22.840Z,1.33
2017-01-21T04:46:33.221Z,1.3
2017-01-21T04:47:43.110Z,1.38
2017-01-21T04:48:52.978Z,1.32
2017-01-21T04:50:03.235Z,1.21
2017-01-21T04:51:13.586Z,1.18
2017-01-21T04:52:23.461Z,1.17
2017-01-21T04:53:33.751Z,1.2
2017-01-21T04:54:44.081Z,1.25
2017-01-21T04:55:54.385Z,1.14
2017-01-21T04:57:04.693Z,1.18
2017-01-21T04:58:14.704Z,1.15
2017-01-21T04:59:24.989Z,1.12
2017-01-21T05:00:35.264Z,1.15
2017-01-21T05:01:45.548Z,1.14
2017-01-21T05:02:55.436Z,1.25
2017-01-21T05:04:05.732Z,1.18
2017-01-21T05:05:15.989Z,1.24
2017-01-21T05:06:25.849Z,1.17
2017-01-21T05:07:36.174Z,1.15
2017-01-21T05:08:46.440Z,1.2
2017-01-21T05:09:56.768Z,1.22
2017-01-21T05:11:07.129Z,1.18
2017-01-21T05:12:16.993Z,1.17
2017-01-21T05:13:26.948Z,1.14
2017-01-21T05:14:37.222Z,0.99
2017-01-21T05:15:47.515Z,1
2017-01-21T05:16:57.816Z,1
2017-01-21T05:18:08.115Z,1.02
2017-01-21T05:19:18.596Z,1.03
2017-01-21T05:20:28.039Z,1.02
2017-01-21T05:21:37.915Z,0.99
2017-01-21T05:22:48.180Z,1.15
2017-01-21T05:23:58.480Z,1.11
2017-01-21T05:25:08.732Z,1.14
2017-01-21T05:26:19.123Z,1.18
2017-01-21T05:27:29.453Z,1.2
2017-01-21T05:28:39.340Z,1.2
2017-01-21T05:29:49.237Z,1.15
2017-01-21T05:30:59.576Z,1.21
2017-01-21T05:32:09.441Z,1.3
2017-01-21T05:33:19.307Z,1.24
2017-01-21T05:34:29.202Z,1.18
2017-01-21T05:35:39.483Z,1.14
2017-01-21T05:36:49.372Z,1.17
2017-01-21T05:37:59.236Z,1.08
2017-01-21T05:39:09.505Z,1.15
2017-01-21T05:40:19.812Z,1.14
2017-01-21T05:41:29.704Z,1.15
2017-01-21T05:42:39.583Z,1.21
2017-01-21T05:43:49.913Z,1.28
2017-01-21T05:44:59.773Z,1.21
2017-01-21T05:46:09.623Z,1.2
2017-01-21T05:47:19.919Z,1.25
2017-01-21T05:48:30.315Z,1.2
2017-01-21T05:49:39.357Z,1.29
2017-01-21T05:50:49.636Z,1.21
2017-01-21T05:51:59.894Z,1.28
2017-01-21T05:53:10.152Z,1.32
2017-01-21T05:54:20.059Z,1.35
2017-01-21T05:55:30.081Z,1.33
2017-01-21T05:56:39.962Z,1.24
2017-01-21T05:57:50.259Z,1.22
2017-01-21T05:59:00.586Z,1.21
2017-01-21T06:00:10.441Z,1.24
2017-01-21T06:01:19.910Z,1.28
2017-01-21T06:02:29.762Z,1.22
2017-01-21T06:03:40.023Z,1.15
2017-01-21T06:04:49.881Z,1.2
2017-01-21T06:06:00.210Z,1.22
2017-01-21T06:07:10.499Z,1.28
2017-01-21T06:08:20.358Z,1.24
2017-01-21T06:09:30.302Z,1.2
2017-01-21T06:10:40.158Z,1.25
2017-01-21T06:11:50.035Z,1.28
2017-01-21T06:12:59.966Z,1.21
2017-01-21T06:14:09.858Z,1.28
2017-01-21T06:15:20.123Z,1.21
2017-01-21T06:16:29.574Z,1.2
2017-01-21T06:17:39.880Z,1.18
2017-01-21T06:18:50.145Z,1.18
2017-01-21T06:20:00.431Z,1.21
2017-01-21T06:21:10.669Z,1.22
2017-01-21T06:22:20.145Z,1.21
2017-01-21T06:23:30.436Z,1.22
2017-01-21T06:24:40.694Z,1.25
2017-01-21T06:25:50.556Z,1.28
2017-01-21T06:27:00.832Z,1.28
2017-01-21T06:28:10.726Z,1.18
2017-01-21T06:29:21.010Z,1.15
2017-01-21T06:30:31.308Z,1.22
2017-01-21T06:31:41.163Z,1.21
2017-01-21T06:32:50.662Z,1.17
2017-01-21T06:34:00.617Z,1.25
2017-01-21T06:35:10.476Z,1.25
2017-01-21T06:36:20.545Z,1.17
2017-01-21T06:37:29.996Z,1.24
2017-01-21T06:38:40.290Z,1.24
2017-01-21T06:39:50.606Z,1.2
2017-01-21T06:41:00.987Z,1.33
2017-01-21T06:42:10.885Z,1.24
2017-01-21T06:43:21.211Z,1.35
2017-01-21T06:44:31.525Z,1.3
2017-01-21T06:45:41.785Z,1.3
2017-01-21T06:46:52.040Z,1.32
2017-01-21T06:48:02.368Z,1.32
2017-01-21T06:49:12.248Z,1.35
2017-01-21T06:50:22.578Z,1.3
2017-01-21T06:51:32.074Z,1.3
2017-01-21T06:52:42.407Z,1.35
2017-01-21T06:53:52.291Z,1.3
2017-01-21T06:55:02.150Z,1.3
2017-01-21T06:56:12.421Z,1.33
2017-01-21T06:57:22.275Z,1.46
2017-01-21T06:58:32.542Z,1.48
2017-01-21T06:59:42.420Z,1.48
2017-01-21T07:00:52.296Z,1.47
2017-01-21T07:02:02.548Z,1.54
2017-01-21T07:03:12.482Z,1.55
2017-01-21T07:04:22.776Z,1.57
2017-01-21T07:05:33.040Z,1.51
2017-01-21T07:06:43.328Z,1.42
2017-01-21T07:07:53.217Z,1.48
2017-01-21T07:09:02.708Z,1.4
2017-01-21T07:10:12.673Z,1.53
2017-01-21T07:11:22.993Z,1.53
2017-01-21T07:12:33.295Z,1.57
2017-01-21T07:13:43.583Z,1.55
2017-01-21T07:14:53.524Z,1.54
2017-01-21T07:16:02.588Z,1.54
2017-01-21T07:17:12.987Z,1.57
2017-01-21T07:18:23.030Z,1.53
2017-01-21T07:19:33.311Z,1.54
2017-01-21T07:20:43.169Z,1.58
2017-01-21T07:21:53.436Z,1.54
2017-01-21T07:23:03.694Z,1.57
2017-01-21T07:24:13.564Z,1.54
2017-01-21T07:25:23.917Z,1.54
2017-01-21T07:26:32.981Z,1.64
2017-01-21T07:27:42.888Z,1.58
2017-01-21T07:28:53.164Z,1.48
2017-01-21T07:30:03.024Z,1.64
2017-01-21T07:31:12.593Z,1.51
2017-01-21T07:32:22.882Z,1.48
2017-01-21T07:33:32.751Z,1.55
2017-01-21T07:34:42.725Z,1.53
2017-01-21T07:35:53.026Z,1.53
2017-01-21T07:37:03.406Z,1.54
2017-01-21T07:38:13.679Z,1.47
2017-01-21T07:39:23.952Z,1.36
2017-01-21T07:40:34.209Z,1.46
2017-01-21T07:41:44.076Z,1.33
2017-01-21T07:42:53.928Z,1.39
2017-01-21T07:44:04.213Z,1.3
2017-01-21T07:45:14.498Z,1.33
2017-01-21T07:46:24.770Z,1.43
2017-01-21T07:47:34.642Z,1.29
2017-01-21T07:48:44.584Z,1.42
2017-01-21T07:49:54.908Z,1.4
2017-01-21T07:51:04.923Z,1.43
2017-01-21T07:52:14.854Z,1.47
2017-01-21T07:53:25.133Z,1.42
2017-01-21T07:54:35.103Z,1.32
2017-01-21T07:55:44.985Z,1.33
2017-01-21T07:56:55.263Z,1.29
2017-01-21T07:58:05.164Z,1.32
2017-01-21T07:59:15.499Z,1.28
2017-01-21T08:00:25.772Z,1.24
2017-01-21T08:01:35.751Z,1.36
2017-01-21T08:02:45.622Z,1.3
2017-01-21T08:03:54.687Z,1.2
2017-01-21T08:05:04.586Z,1.21
2017-01-21T08:06:14.514Z,1.33
2017-01-21T08:07:24.886Z,1.22
2017-01-21T08:08:34.754Z,1.35
2017-01-21T08:09:44.634Z,1.24
2017-01-21T08:10:54.626Z,1.22
2017-01-21T08:12:04.877Z,1.33
2017-01-21T08:13:14.360Z,1.3
2017-01-21T08:14:24.228Z,1.32
2017-01-21T08:15:34.532Z,1.33
2017-01-21T08:16:44.806Z,1.38
2017-01-21T08:17:55.131Z,1.38
2017-01-21T08:19:04.995Z,1.48
2017-01-21T08:20:14.461Z,1.46
2017-01-21T08:21:24.350Z,1.47
2017-01-21T08:22:34.633Z,1.38
2017-01-21T08:23:44.897Z,1.3
2017-01-21T08:24:55.151Z,1.39
2017-01-21T08:26:05.498Z,1.46
2017-01-21T08:27:14.947Z,1.33
2017-01-21T08:28:25.220Z,1.43
2017-01-21T08:29:35.548Z,1.4
2017-01-21T08:30:45.837Z,1.53
2017-01-21T08:31:54.964Z,1.46
2017-01-21T08:33:05.283Z,1.47
2017-01-21T08:34:15.569Z,1.53
2017-01-21T08:35:25.962Z,1.55
2017-01-21T08:36:36.294Z,1.55
2017-01-21T08:37:46.611Z,1.55
2017-01-21T08:38:56.525Z,1.51
2017-01-21T08:40:06.095Z,1.53
2017-01-21T08:41:15.992Z,1.51
2017-01-21T08:42:25.496Z,1.55
2017-01-21T08:43:35.792Z,1.57
2017-01-21T08:44:45.736Z,1.51
2017-01-21T08:45:56.015Z,1.55
2017-01-21T08:47:06.274Z,1.48
2017-01-21T08:48:16.136Z,1.51
2017-01-21T08:49:26.411Z,1.53
2017-01-21T08:50:36.334Z,1.58
2017-01-21T08:51:46.720Z,1.58
2017-01-21T08:52:57.039Z,1.53
2017-01-21T08:54:07.072Z,1.53
2017-01-21T08:55:17.067Z,1.55
2017-01-21T08:56:27.420Z,1.5
2017-01-21T08:57:37.275Z,1.54
2017-01-21T08:58:46.837Z,1.53
2017-01-21T08:59:57.106Z,1.51
2017-01-21T09:01:07.365Z,1.57
2017-01-21T09:02:17.275Z,1.58
2017-01-21T09:03:27.589Z,1.54
2017-01-21T09:04:37.461Z,1.7
2017-01-21T09:05:47.348Z,1.69
2017-01-21T09:06:57.282Z,1.58
2017-01-21T09:08:07.225Z,1.53
2017-01-21T09:09:17.524Z,1.66
2017-01-21T09:10:27.390Z,1.55
2017-01-21T09:11:37.260Z,1.72
2017-01-21T09:12:47.125Z,1.7
2017-01-21T09:13:57.400Z,1.72
2017-01-21T09:15:07.279Z,1.54
2017-01-21T09:16:17.590Z,1.53
2017-01-21T09:17:27.920Z,1.54
2017-01-21T09:18:37.880Z,1.54
2017-01-21T09:19:48.312Z,1.43
2017-01-21T09:20:58.186Z,1.43
2017-01-21T09:22:08.070Z,1.33
2017-01-21T09:23:18.325Z,1.24
2017-01-21T09:24:28.660Z,1
2017-01-21T09:25:39.068Z,1.02
2017-01-21T09:26:48.958Z,0.85
2017-01-21T09:27:58.878Z,0.92
2017-01-21T09:29:09.169Z,0.82
2017-01-21T09:30:19.526Z,0.72
2017-01-21T09:31:29.781Z,0.66
2017-01-21T09:32:39.265Z,0.58
2017-01-21T09:33:49.160Z,0.49
2017-01-21T09:34:58.666Z,0.48
2017-01-21T09:36:08.524Z,0.48
2017-01-21T09:37:18.019Z,0.49
2017-01-21T09:38:28.338Z,0.5
2017-01-21T09:39:38.623Z,0.43
2017-01-21T09:40:47.694Z,0.49
2017-01-21T09:41:57.688Z,0.49
2017-01-21T09:43:07.968Z,0.4
2017-01-21T09:44:17.850Z,0.48
2017-01-21T09:45:28.148Z,0.54
2017-01-21T09:46:38.410Z,0.58
2017-01-21T09:47:47.968Z,0.6
2017-01-21T09:48:58.240Z,0.6
2017-01-21T09:50:08.553Z,0.66
2017-01-21T09:51:18.412Z,0.67
2017-01-21T09:52:27.879Z,0.72
2017-01-21T09:53:37.852Z,0.68
2017-01-21T09:54:48.235Z,0.76
2017-01-21T09:55:58.120Z,0.64
2017-01-21T09:57:08.400Z,0.71
2017-01-21T09:58:18.356Z,0.63
2017-01-21T09:59:28.629Z,0.66
2017-01-21T10:00:38.551Z,0.63
2017-01-21T10:01:48.524Z,0.68
2017-01-21T10:02:58.834Z,0.67
2017-01-21T10:04:09.136Z,0.67
2017-01-21T10:05:18.625Z,0.61
2017-01-21T10:06:28.923Z,0.71
2017-01-21T10:07:39.249Z,0.78
2017-01-21T10:08:49.509Z,0.67
2017-01-21T10:09:59.769Z,0.74
2017-01-21T10:11:10.076Z,0.76
2017-01-21T10:12:19.987Z,0.68
2017-01-21T10:13:29.889Z,0.71
2017-01-21T10:14:40.153Z,0.82
2017-01-21T10:15:50.031Z,0.82
2017-01-21T10:17:00.080Z,0.82
2017-01-21T10:18:10.511Z,1.04
2017-01-21T10:19:20.790Z,1
2017-01-21T10:20:30.647Z,0.97
2017-01-21T10:21:40.913Z,1.02
2017-01-21T10:22:50.849Z,0.88
2017-01-21T10:24:01.116Z,0.86
2017-01-21T10:25:10.986Z,0.93
2017-01-21T10:26:21.342Z,0.82
2017-01-21T10:27:31.701Z,0.97
2017-01-21T10:28:42.066Z,1.02
2017-01-21T10:29:52.405Z,1.04
2017-01-21T10:31:02.677Z,1
2017-01-21T10:32:12.948Z,1.04
2017-01-21T10:33:22.801Z,1.03
2017-01-21T10:34:33.108Z,1.04
2017-01-21T10:35:43.369Z,0.99
2017-01-21T10:36:52.838Z,1
2017-01-21T10:38:03.174Z,1.15
2017-01-21T10:39:13.038Z,1.15
2017-01-21T10:40:23.481Z,1.22
2017-01-21T10:41:33.350Z,1.22
2017-01-21T10:42:43.642Z,1.32
2017-01-21T10:43:53.585Z,1.24
2017-01-21T10:45:03.461Z,1.24
2017-01-21T10:46:13.320Z,1.18
2017-01-21T10:47:23.660Z,1.2
2017-01-21T10:48:33.173Z,1.21
2017-01-21T10:49:43.444Z,1.21
2017-01-21T10:50:53.752Z,1.12
2017-01-21T10:52:03.671Z,1.2
2017-01-21T10:53:13.543Z,1.28
2017-01-21T10:54:23.903Z,1.21
2017-01-21T10:55:33.792Z,1.3
2017-01-21T10:56:43.667Z,1.38
2017-01-21T10:57:53.922Z,1.4
2017-01-21T10:59:04.190Z,1.54
2017-01-21T11:00:14.502Z,1.43
2017-01-21T11:01:24.786Z,1.6
2017-01-21T11:02:35.060Z,1.62
2017-01-21T11:03:45.365Z,1.57
2017-01-21T11:04:55.267Z,1.73
2017-01-21T11:06:05.532Z,1.58
2017-01-21T11:07:15.808Z,1.53
2017-01-21T11:08:25.690Z,1.6
2017-01-21T11:09:35.994Z,1.42
2017-01-21T11:10:46.321Z,1.48
2017-01-21T11:11:56.735Z,1.51
2017-01-21T11:13:07.000Z,1.55
2017-01-21T11:14:16.982Z,1.43
2017-01-21T11:15:27.334Z,1.39
2017-01-21T11:16:37.241Z,1.36
2017-01-21T11:17:46.759Z,1.33
2017-01-21T11:18:57.101Z,1.21
2017-01-21T11:20:06.652Z,1.21
2017-01-21T11:21:16.938Z,1.21
2017-01-21T11:22:27.246Z,1.2
2017-01-21T11:23:37.667Z,1.24
2017-01-21T11:24:47.970Z,1.22
2017-01-21T11:25:57.854Z,1.28
2017-01-21T11:27:08.148Z,1.24
2017-01-21T11:28:18.526Z,1.22
2017-01-21T11:29:28.452Z,1.33
2017-01-21T11:30:37.985Z,1.32
2017-01-21T11:31:47.928Z,1.33
2017-01-21T11:32:58.226Z,1.35
2017-01-21T11:34:07.925Z,1.29
2017-01-21T11:35:17.832Z,1.22
2017-01-21T11:36:28.169Z,1.21
2017-01-21T11:37:38.476Z,1.17
2017-01-21T11:38:48.801Z,1.2
2017-01-21T11:39:59.089Z,1.28
2017-01-21T11:41:09.392Z,1.28
2017-01-21T11:42:18.865Z,1.33
2017-01-21T11:43:29.255Z,1.36
2017-01-21T11:44:39.581Z,1.29
2017-01-21T11:45:49.882Z,1.32
2017-01-21T11:47:00.198Z,1.47
2017-01-21T11:48:10.473Z,1.47
2017-01-21T11:49:20.559Z,1.5
2017-01-21T11:50:30.479Z,1.55
2017-01-21T11:51:40.824Z,1.55
2017-01-21T11:52:51.116Z,1.67
2017-01-21T11:54:01.415Z,1.72
2017-01-21T11:55:11.845Z,1.88
2017-01-21T11:56:22.139Z,1.97
2017-01-21T11:57:32.448Z,2.01
2017-01-21T11:58:42.362Z,2.03
2017-01-21T11:59:52.248Z,2.1
2017-01-21T12:01:01.770Z,2.23
2017-01-21T12:02:12.163Z,2.26
2017-01-21T12:03:22.465Z,2.31
2017-01-21T12:04:32.355Z,2.31
2017-01-21T12:05:42.657Z,2.33
2017-01-21T12:06:52.562Z,2.21
2017-01-21T12:08:02.447Z,2.33
2017-01-21T12:09:12.362Z,2.33
2017-01-21T12:10:22.262Z,2.34
2017-01-21T12:11:32.154Z,2.33
2017-01-21T12:12:42.164Z,2.34
2017-01-21T12:13:52.534Z,2.24
2017-01-21T12:15:02.557Z,2.31
2017-01-21T12:16:13.045Z,2.34
2017-01-21T12:17:23.391Z,2.24
2017-01-21T12:18:33.105Z,2.18
2017-01-21T12:19:43.011Z,2.12
2017-01-21T12:20:53.072Z,2.12
2017-01-21T12:22:03.452Z,2.16
2017-01-21T12:23:13.390Z,2.23
2017-01-21T12:24:22.994Z,2.21
2017-01-21T12:25:33.285Z,2.27
2017-01-21T12:26:43.590Z,2.19
2017-01-21T12:27:53.944Z,2.28
2017-01-21T12:29:04.323Z,2.27
2017-01-21T12:30:14.805Z,2.26
2017-01-21T12:31:24.745Z,2.3
2017-01-21T12:32:35.169Z,2.24
2017-01-21T12:33:45.453Z,2.28
2017-01-21T12:34:54.547Z,2.34
2017-01-21T12:36:04.054Z,2.33
2017-01-21T12:37:13.971Z,2.3
2017-01-21T12:38:23.912Z,2.23
2017-01-21T12:39:34.387Z,2.15
2017-01-21T12:40:44.906Z,2.09
2017-01-21T12:41:55.431Z,2.08
2017-01-21T12:43:06.481Z,2.08
2017-01-21T12:44:16.834Z,2.21
2017-01-21T12:45:26.755Z,2.05
2017-01-21T12:46:36.766Z,2.1
2017-01-21T12:47:46.685Z,2.13
2017-01-21T12:48:57.132Z,2.13
2017-01-21T12:50:07.010Z,2.16
2017-01-21T12:51:17.032Z,2.18
2017-01-21T12:52:27.335Z,2.15
2017-01-21T12:53:37.236Z,2.15
2017-01-21T12:54:47.570Z,2.12
2017-01-21T12:55:57.092Z,2.05
2017-01-21T12:57:07.452Z,2.08
2017-01-21T12:58:17.734Z,2.18
2017-01-21T12:59:28.065Z,2.08
2017-01-21T13:00:37.961Z,2.03
2017-01-21T13:01:47.974Z,1.98
2017-01-21T13:02:57.939Z,1.79
2017-01-21T13:04:07.441Z,1.72
2017-01-21T13:05:17.508Z,1.73
2017-01-21T13:06:27.814Z,1.79
2017-01-21T13:07:37.696Z,1.76
2017-01-21T13:08:47.569Z,1.73
2017-01-21T13:09:57.475Z,1.74
2017-01-21T13:11:07.865Z,1.87
2017-01-21T13:12:18.277Z,1.77
2017-01-21T13:13:28.599Z,1.97
2017-01-21T13:14:38.917Z,2
2017-01-21T13:15:49.220Z,2.12
2017-01-21T13:16:59.617Z,2.1
2017-01-21T13:18:09.542Z,2.18
2017-01-21T13:19:19.911Z,2.13
2017-01-21T13:20:30.237Z,2.12
2017-01-21T13:21:40.505Z,2.08
2017-01-21T13:22:50.847Z,2.06
2017-01-21T13:24:01.205Z,2.12
2017-01-21T13:25:11.164Z,2.15
2017-01-21T13:26:21.093Z,2.16
2017-01-21T13:27:31.532Z,2.15
2017-01-21T13:28:41.455Z,2.13
2017-01-21T13:29:51.769Z,2.1
2017-01-21T13:31:01.647Z,2.1
2017-01-21T13:32:11.573Z,2
2017-01-21T13:33:21.478Z,2
2017-01-21T13:34:31.862Z,1.95
2017-01-21T13:35:42.180Z,1.85
2017-01-21T13:36:52.475Z,1.72
2017-01-21T13:38:02.395Z,1.72
2017-01-21T13:39:12.275Z,1.69
2017-01-21T13:40:22.591Z,1.54
2017-01-21T13:41:32.459Z,1.69
2017-01-21T13:42:41.987Z,1.67
2017-01-21T13:43:51.488Z,1.76
2017-01-21T13:45:01.804Z,1.84
2017-01-21T13:46:12.152Z,1.82
2017-01-21T13:47:22.484Z,1.79
2017-01-21T13:48:32.413Z,1.85
2017-01-21T13:49:42.513Z,1.84
2017-01-21T13:50:52.801Z,1.94
2017-01-21T13:52:03.092Z,2.01
2017-01-21T13:53:13.398Z,2.01
2017-01-21T13:54:23.276Z,2.01
2017-01-21T13:55:32.855Z,2.1
2017-01-21T13:56:43.191Z,2.09
2017-01-21T13:57:53.084Z,2.08
2017-01-21T13:59:02.959Z,2.12
2017-01-21T14:00:12.864Z,2.05
2017-01-21T14:01:22.841Z,2
2017-01-21T14:02:33.162Z,1.98
2017-01-21T14:03:43.527Z,1.94
2017-01-21T14:04:53.831Z,1.94
2017-01-21T14:06:03.365Z,1.97
2017-01-21T14:07:13.731Z,1.95
2017-01-21T14:08:23.671Z,1.9
2017-01-21T14:09:33.323Z,1.82
2017-01-21T14:10:43.639Z,1.74
2017-01-21T14:11:53.972Z,1.74
2017-01-21T14:13:04.342Z,1.69
2017-01-21T14:14:14.896Z,1.72
2017-01-21T14:15:24.810Z,1.79
2017-01-21T14:16:35.125Z,1.7
2017-01-21T14:17:45.458Z,1.84
2017-01-21T14:18:55.372Z,1.84
2017-01-21T14:20:05.672Z,1.95
2017-01-21T14:21:15.962Z,1.92
2017-01-21T14:22:25.902Z,2.05
2017-01-21T14:23:35.805Z,2
2017-01-21T14:24:45.685Z,2.03
2017-01-21T14:25:55.572Z,2.05
2017-01-21T14:27:05.480Z,2.01
2017-01-21T14:28:15.812Z,2
2017-01-21T14:29:25.747Z,2.08
2017-01-21T14:30:36.135Z,2.13
2017-01-21T14:31:46.420Z,2.08
2017-01-21T14:32:56.761Z,2.16
2017-01-21T14:34:06.275Z,2.12
2017-01-21T14:35:16.602Z,2.12
2017-01-21T14:36:26.951Z,2.09
2017-01-21T14:37:37.282Z,2.08
2017-01-21T14:38:47.654Z,2.12
2017-01-21T14:39:57.570Z,2.13
2017-01-21T14:41:07.481Z,2.09
2017-01-21T14:42:17.798Z,2.18
2017-01-21T14:43:28.089Z,2.24
2017-01-21T14:44:38.415Z,2.27
2017-01-21T14:45:48.776Z,2.28
2017-01-21T14:46:58.751Z,2.21
2017-01-21T14:48:09.094Z,2.13
2017-01-21T14:49:19.386Z,2.1
2017-01-21T14:50:29.726Z,1.98
2017-01-21T14:51:39.199Z,2.01
2017-01-21T14:52:49.093Z,1.94
2017-01-21T14:53:59.016Z,2.03
2017-01-21T14:55:09.303Z,2.01
2017-01-21T14:56:19.223Z,1.97
2017-01-21T14:57:29.560Z,1.97
2017-01-21T14:58:39.444Z,1.94
2017-01-21T14:59:49.793Z,1.95
2017-01-21T15:00:59.706Z,1.97
2017-01-21T15:02:09.599Z,1.88
2017-01-21T15:03:19.934Z,1.88
2017-01-21T15:04:29.821Z,1.8
2017-01-21T15:05:39.743Z,1.73
2017-01-21T15:06:50.079Z,1.76
2017-01-21T15:08:00.456Z,1.72
2017-01-21T15:09:10.434Z,1.72
2017-01-21T15:10:20.721Z,1.79
2017-01-21T15:11:31.072Z,1.76
2017-01-21T15:12:40.959Z,1.67
2017-01-21T15:13:51.378Z,1.76
2017-01-21T15:15:01.728Z,1.72
2017-01-21T15:16:11.230Z,1.8
2017-01-21T15:17:21.519Z,1.79
2017-01-21T15:18:31.815Z,1.74
2017-01-21T15:19:42.133Z,1.55
2017-01-21T15:20:52.505Z,1.54
2017-01-21T15:22:02.391Z,1.53
2017-01-21T15:23:12.717Z,1.54
2017-01-21T15:24:23.077Z,1.53
2017-01-21T15:25:33.380Z,1.64
2017-01-21T15:26:42.897Z,1.58
2017-01-21T15:27:53.259Z,1.51
2017-01-21T15:29:03.562Z,1.53
2017-01-21T15:30:13.904Z,1.53
2017-01-21T15:31:24.203Z,1.58
2017-01-21T15:32:34.534Z,1.62
2017-01-21T15:33:44.834Z,1.54
2017-01-21T15:34:55.165Z,1.54
2017-01-21T15:36:05.479Z,1.6
2017-01-21T15:37:15.508Z,1.51